sensor_id;sensor_type;location;lat;lon;timestamp;temperature;humidity
22426;DHT22;11380;50.822;15.790;2022-10-23T00:04:25;7.20;99.90
22426;DHT22;11380;50.822;15.790;2022-10-23T00:09:32;7.20;99.90
22426;DHT22;11380;50.822;15.790;2022-10-23T00:14:37;7.30;99.90
22426;DHT22;11380;50.822;15.790;2022-10-23T00:19:44;7.40;99.90
22426;DHT22;11380;50.822;15.790;2022-10-23T00:24:49;7.60;99.90
22426;DHT22;11380;50.822;15.790;2022-10-23T00:29:54;7.50;99.90
22426;DHT22;11380;50.822;15.790;2022-10-23T00:35:00;7.60;99.90
22426;DHT22;11380;50.822;15.790;2022-10-23T00:40:06;7.50;99.90
22426;DHT22;11380;50.822;15.790;2022-10-23T00:45:20;7.50;99.90
22426;DHT22;11380;50.822;15.790;2022-10-23T00:50:22;7.50;99.90
22426;DHT22;11380;50.822;15.790;2022-10-23T00:55:29;7.50;99.90
22426;DHT22;11380;50.822;15.790;2022-10-23T01:00:47;7.40;99.90
22426;DHT22;11380;50.822;15.790;2022-10-23T01:06:04;7.40;99.90
22426;DHT22;11380;50.822;15.790;2022-10-23T01:11:09;7.50;99.90
22426;DHT22;11380;50.822;15.790;2022-10-23T01:16:19;7.60;99.90
22426;DHT22;11380;50.822;15.790;2022-10-23T01:21:48;7.50;99.90
22426;DHT22;11380;50.822;15.790;2022-10-23T01:27:08;7.20;99.90
22426;DHT22;11380;50.822;15.790;2022-10-23T01:32:15;7.00;99.90
22426;DHT22;11380;50.822;15.790;2022-10-23T01:37:35;6.90;99.90
22426;DHT22;11380;50.822;15.790;2022-10-23T01:42:43;7.10;99.90
22426;DHT22;11380;50.822;15.790;2022-10-23T01:47:50;7.20;99.90
22426;DHT22;11380;50.822;15.790;2022-10-23T01:52:58;7.30;99.90
22426;DHT22;11380;50.822;15.790;2022-10-23T01:58:05;7.00;99.90
22426;DHT22;11380;50.822;15.790;2022-10-23T02:03:15;6.80;99.90
22426;DHT22;11380;50.822;15.790;2022-10-23T02:08:21;7.00;99.90
22426;DHT22;11380;50.822;15.790;2022-10-23T02:24:32;7.20;99.90
22426;DHT22;11380;50.822;15.790;2022-10-23T02:29:40;7.30;99.90
22426;DHT22;11380;50.822;15.790;2022-10-23T02:34:42;7.20;99.90
22426;DHT22;11380;50.822;15.790;2022-10-23T02:39:47;7.40;99.90
22426;DHT22;11380;50.822;15.790;2022-10-23T02:50:29;7.70;99.90
22426;DHT22;11380;50.822;15.790;2022-10-23T03:01:08;7.50;99.90
22426;DHT22;11380;50.822;15.790;2022-10-23T03:06:11;7.30;99.90
22426;DHT22;11380;50.822;15.790;2022-10-23T03:11:18;7.40;99.90
22426;DHT22;11380;50.822;15.790;2022-10-23T03:16:24;7.20;99.90
22426;DHT22;11380;50.822;15.790;2022-10-23T03:21:30;7.30;99.90
22426;DHT22;11380;50.822;15.790;2022-10-23T03:26:36;7.50;99.90
22426;DHT22;11380;50.822;15.790;2022-10-23T03:31:41;7.50;99.90
22426;DHT22;11380;50.822;15.790;2022-10-23T03:36:46;7.60;99.90
22426;DHT22;11380;50.822;15.790;2022-10-23T03:41:51;7.00;99.90
22426;DHT22;11380;50.822;15.790;2022-10-23T03:46:57;7.10;99.90
22426;DHT22;11380;50.822;15.790;2022-10-23T03:52:03;7.00;99.90
22426;DHT22;11380;50.822;15.790;2022-10-23T03:57:08;7.00;99.90
22426;DHT22;11380;50.822;15.790;2022-10-23T04:02:13;7.10;99.90
22426;DHT22;11380;50.822;15.790;2022-10-23T04:07:20;7.20;99.90
22426;DHT22;11380;50.822;15.790;2022-10-23T04:12:25;7.30;99.90
22426;DHT22;11380;50.822;15.790;2022-10-23T04:17:31;7.00;99.90
22426;DHT22;11380;50.822;15.790;2022-10-23T04:22:36;6.80;99.90
22426;DHT22;11380;50.822;15.790;2022-10-23T04:27:42;6.90;99.90
22426;DHT22;11380;50.822;15.790;2022-10-23T04:32:52;6.90;99.90
22426;DHT22;11380;50.822;15.790;2022-10-23T04:37:57;7.00;99.90
22426;DHT22;11380;50.822;15.790;2022-10-23T04:43:03;6.90;99.90
22426;DHT22;11380;50.822;15.790;2022-10-23T04:48:09;6.90;99.90
22426;DHT22;11380;50.822;15.790;2022-10-23T04:53:14;6.80;99.90
22426;DHT22;11380;50.822;15.790;2022-10-23T04:58:21;7.00;99.90
22426;DHT22;11380;50.822;15.790;2022-10-23T05:03:27;6.80;99.90
22426;DHT22;11380;50.822;15.790;2022-10-23T05:08:33;6.70;99.90
22426;DHT22;11380;50.822;15.790;2022-10-23T05:13:38;6.80;99.90
22426;DHT22;11380;50.822;15.790;2022-10-23T05:18:46;6.80;99.90
22426;DHT22;11380;50.822;15.790;2022-10-23T05:23:53;6.90;99.90
22426;DHT22;11380;50.822;15.790;2022-10-23T05:28:58;7.00;99.90
22426;DHT22;11380;50.822;15.790;2022-10-23T05:34:04;6.80;99.90
22426;DHT22;11380;50.822;15.790;2022-10-23T05:39:12;6.90;99.90
22426;DHT22;11380;50.822;15.790;2022-10-23T05:44:18;7.00;99.90
22426;DHT22;11380;50.822;15.790;2022-10-23T05:49:24;7.00;99.90
22426;DHT22;11380;50.822;15.790;2022-10-23T05:54:29;7.00;99.90
22426;DHT22;11380;50.822;15.790;2022-10-23T05:59:35;6.90;99.90
22426;DHT22;11380;50.822;15.790;2022-10-23T06:04:41;6.90;99.90
22426;DHT22;11380;50.822;15.790;2022-10-23T06:09:46;6.50;99.90
22426;DHT22;11380;50.822;15.790;2022-10-23T06:14:52;6.40;99.90
22426;DHT22;11380;50.822;15.790;2022-10-23T06:19:58;6.40;99.90
22426;DHT22;11380;50.822;15.790;2022-10-23T06:25:06;6.60;99.90
22426;DHT22;11380;50.822;15.790;2022-10-23T06:30:13;6.70;99.90
22426;DHT22;11380;50.822;15.790;2022-10-23T06:35:18;7.00;99.90
22426;DHT22;11380;50.822;15.790;2022-10-23T06:40:23;7.30;99.90
22426;DHT22;11380;50.822;15.790;2022-10-23T06:45:29;7.70;99.90
22426;DHT22;11380;50.822;15.790;2022-10-23T06:50:37;7.90;99.90
22426;DHT22;11380;50.822;15.790;2022-10-23T06:55:42;8.40;99.90
22426;DHT22;11380;50.822;15.790;2022-10-23T07:00:48;8.60;99.90
22426;DHT22;11380;50.822;15.790;2022-10-23T07:05:54;8.90;99.90
22426;DHT22;11380;50.822;15.790;2022-10-23T07:11:11;9.00;99.90
22426;DHT22;11380;50.822;15.790;2022-10-23T07:16:17;9.40;99.90
22426;DHT22;11380;50.822;15.790;2022-10-23T07:21:23;9.80;99.90
22426;DHT22;11380;50.822;15.790;2022-10-23T07:26:29;10.20;99.90
22426;DHT22;11380;50.822;15.790;2022-10-23T07:31:36;10.50;99.90
22426;DHT22;11380;50.822;15.790;2022-10-23T07:36:41;10.90;99.90
22426;DHT22;11380;50.822;15.790;2022-10-23T07:41:47;11.30;99.90
22426;DHT22;11380;50.822;15.790;2022-10-23T07:46:52;11.80;99.90
22426;DHT22;11380;50.822;15.790;2022-10-23T07:51:58;12.30;99.90
22426;DHT22;11380;50.822;15.790;2022-10-23T07:57:03;12.20;99.90
22426;DHT22;11380;50.822;15.790;2022-10-23T08:02:14;12.70;99.90
22426;DHT22;11380;50.822;15.790;2022-10-23T08:07:20;13.10;99.90
22426;DHT22;11380;50.822;15.790;2022-10-23T08:12:25;13.30;99.90
22426;DHT22;11380;50.822;15.790;2022-10-23T08:17:30;13.30;99.90
22426;DHT22;11380;50.822;15.790;2022-10-23T08:22:36;13.50;99.90
22426;DHT22;11380;50.822;15.790;2022-10-23T08:27:43;13.90;99.90
22426;DHT22;11380;50.822;15.790;2022-10-23T08:32:48;14.10;99.90
22426;DHT22;11380;50.822;15.790;2022-10-23T08:37:54;14.70;99.90
22426;DHT22;11380;50.822;15.790;2022-10-23T08:43:05;14.60;99.90
22426;DHT22;11380;50.822;15.790;2022-10-23T08:48:20;15.40;99.90
22426;DHT22;11380;50.822;15.790;2022-10-23T08:53:51;15.80;99.90
22426;DHT22;11380;50.822;15.790;2022-10-23T09:04:13;16.00;99.90
22426;DHT22;11380;50.822;15.790;2022-10-23T09:20:27;16.50;99.90
22426;DHT22;11380;50.822;15.790;2022-10-23T09:25:41;16.80;1.00
22426;DHT22;11380;50.822;15.790;2022-10-23T09:30:42;17.60;99.90
22426;DHT22;11380;50.822;15.790;2022-10-23T09:41:28;18.40;99.90
22426;DHT22;11380;50.822;15.790;2022-10-23T09:46:41;18.50;99.90
22426;DHT22;11380;50.822;15.790;2022-10-23T09:51:58;18.60;99.90
22426;DHT22;11380;50.822;15.790;2022-10-23T09:57:23;19.00;99.90
22426;DHT22;11380;50.822;15.790;2022-10-23T10:02:32;18.70;99.90
22426;DHT22;11380;50.822;15.790;2022-10-23T10:07:37;19.00;99.90
22426;DHT22;11380;50.822;15.790;2022-10-23T10:12:48;18.80;99.90
22426;DHT22;11380;50.822;15.790;2022-10-23T10:23:33;19.40;1.00
22426;DHT22;11380;50.822;15.790;2022-10-23T10:28:58;19.50;1.00
22426;DHT22;11380;50.822;15.790;2022-10-23T10:50:30;20.20;1.00
22426;DHT22;11380;50.822;15.790;2022-10-23T10:55:40;19.90;1.00
22426;DHT22;11380;50.822;15.790;2022-10-23T11:00:49;19.90;1.00
22426;DHT22;11380;50.822;15.790;2022-10-23T11:05:58;20.30;1.00
22426;DHT22;11380;50.822;15.790;2022-10-23T11:11:14;20.10;1.00
22426;DHT22;11380;50.822;15.790;2022-10-23T11:16:36;19.30;1.00
22426;DHT22;11380;50.822;15.790;2022-10-23T11:21:43;19.40;1.00
22426;DHT22;11380;50.822;15.790;2022-10-23T11:32:50;19.60;1.00
22426;DHT22;11380;50.822;15.790;2022-10-23T11:43:47;19.70;1.00
22426;DHT22;11380;50.822;15.790;2022-10-23T11:48:54;19.60;1.00
22426;DHT22;11380;50.822;15.790;2022-10-23T11:59:26;19.80;1.00
22426;DHT22;11380;50.822;15.790;2022-10-23T12:04:45;20.00;1.00
22426;DHT22;11380;50.822;15.790;2022-10-23T12:09:54;19.90;1.00
22426;DHT22;11380;50.822;15.790;2022-10-23T12:20:30;19.50;1.00
22426;DHT22;11380;50.822;15.790;2022-10-23T12:25:58;19.60;1.00
22426;DHT22;11380;50.822;15.790;2022-10-23T12:31:19;19.60;1.00
22426;DHT22;11380;50.822;15.790;2022-10-23T12:41:38;19.60;1.00
22426;DHT22;11380;50.822;15.790;2022-10-23T12:46:53;19.30;1.00
22426;DHT22;11380;50.822;15.790;2022-10-23T12:52:19;19.30;1.00
22426;DHT22;11380;50.822;15.790;2022-10-23T12:57:22;18.70;1.00
22426;DHT22;11380;50.822;15.790;2022-10-23T13:02:31;18.60;1.00
22426;DHT22;11380;50.822;15.790;2022-10-23T13:07:43;18.70;1.00
22426;DHT22;11380;50.822;15.790;2022-10-23T13:12:57;18.60;1.00
22426;DHT22;11380;50.822;15.790;2022-10-23T13:18:04;18.40;1.00
22426;DHT22;11380;50.822;15.790;2022-10-23T13:28:42;18.00;1.00
22426;DHT22;11380;50.822;15.790;2022-10-23T13:34:15;18.00;1.00
22426;DHT22;11380;50.822;15.790;2022-10-23T13:39:10;17.80;1.00
22426;DHT22;11380;50.822;15.790;2022-10-23T13:44:19;17.60;1.00
22426;DHT22;11380;50.822;15.790;2022-10-23T13:49:25;17.50;1.00
22426;DHT22;11380;50.822;15.790;2022-10-23T13:54:31;17.10;99.90
22426;DHT22;11380;50.822;15.790;2022-10-23T13:59:37;17.20;99.90
22426;DHT22;11380;50.822;15.790;2022-10-23T14:04:43;17.20;99.90
22426;DHT22;11380;50.822;15.790;2022-10-23T14:09:49;17.00;99.90
22426;DHT22;11380;50.822;15.790;2022-10-23T14:14:56;16.80;99.90
22426;DHT22;11380;50.822;15.790;2022-10-23T14:20:03;16.70;1.00
22426;DHT22;11380;50.822;15.790;2022-10-23T14:25:09;16.50;99.90
22426;DHT22;11380;50.822;15.790;2022-10-23T14:30:15;16.40;99.90
22426;DHT22;11380;50.822;15.790;2022-10-23T14:35:21;16.20;99.90
22426;DHT22;11380;50.822;15.790;2022-10-23T14:40:29;16.10;99.90
22426;DHT22;11380;50.822;15.790;2022-10-23T14:45:35;16.00;99.90
22426;DHT22;11380;50.822;15.790;2022-10-23T14:50:45;15.70;99.90
22426;DHT22;11380;50.822;15.790;2022-10-23T14:55:52;15.70;99.90
22426;DHT22;11380;50.822;15.790;2022-10-23T15:00:59;15.50;1.00
22426;DHT22;11380;50.822;15.790;2022-10-23T15:06:05;15.60;1.00
22426;DHT22;11380;50.822;15.790;2022-10-23T15:11:12;15.30;99.90
22426;DHT22;11380;50.822;15.790;2022-10-23T15:16:18;15.30;99.90
22426;DHT22;11380;50.822;15.790;2022-10-23T15:21:23;15.10;1.00
22426;DHT22;11380;50.822;15.790;2022-10-23T15:26:28;15.00;99.90
22426;DHT22;11380;50.822;15.790;2022-10-23T15:36:45;14.80;1.00
22426;DHT22;11380;50.822;15.790;2022-10-23T15:41:55;14.60;99.90
22426;DHT22;11380;50.822;15.790;2022-10-23T15:47:00;14.20;1.00
22426;DHT22;11380;50.822;15.790;2022-10-23T15:52:09;14.40;99.90
22426;DHT22;11380;50.822;15.790;2022-10-23T15:57:17;13.80;1.00
22426;DHT22;11380;50.822;15.790;2022-10-23T16:02:22;13.90;1.00
22426;DHT22;11380;50.822;15.790;2022-10-23T16:07:28;13.20;1.00
22426;DHT22;11380;50.822;15.790;2022-10-23T16:12:33;12.80;1.00
22426;DHT22;11380;50.822;15.790;2022-10-23T16:17:40;13.00;1.00
22426;DHT22;11380;50.822;15.790;2022-10-23T16:22:47;13.10;1.00
22426;DHT22;11380;50.822;15.790;2022-10-23T16:27:53;13.00;1.00
22426;DHT22;11380;50.822;15.790;2022-10-23T16:33:00;12.70;1.00
22426;DHT22;11380;50.822;15.790;2022-10-23T16:38:06;12.60;1.00
22426;DHT22;11380;50.822;15.790;2022-10-23T16:43:12;12.30;1.00
22426;DHT22;11380;50.822;15.790;2022-10-23T16:48:17;12.60;1.00
22426;DHT22;11380;50.822;15.790;2022-10-23T16:53:23;12.70;1.00
22426;DHT22;11380;50.822;15.790;2022-10-23T16:58:29;12.20;1.00
22426;DHT22;11380;50.822;15.790;2022-10-23T17:03:36;12.20;1.00
22426;DHT22;11380;50.822;15.790;2022-10-23T17:08:42;11.80;1.00
22426;DHT22;11380;50.822;15.790;2022-10-23T17:13:50;11.90;1.00
22426;DHT22;11380;50.822;15.790;2022-10-23T17:18:58;11.80;1.00
22426;DHT22;11380;50.822;15.790;2022-10-23T17:24:04;11.90;1.00
22426;DHT22;11380;50.822;15.790;2022-10-23T17:29:11;11.80;1.00
22426;DHT22;11380;50.822;15.790;2022-10-23T17:34:21;11.70;1.00
22426;DHT22;11380;50.822;15.790;2022-10-23T17:39:28;11.80;1.00
22426;DHT22;11380;50.822;15.790;2022-10-23T17:44:35;11.80;1.00
22426;DHT22;11380;50.822;15.790;2022-10-23T17:49:40;11.30;1.00
22426;DHT22;11380;50.822;15.790;2022-10-23T17:54:52;11.20;84.90
22426;DHT22;11380;50.822;15.790;2022-10-23T17:59:58;11.40;67.90
22426;DHT22;11380;50.822;15.790;2022-10-23T18:05:05;11.40;49.40
22426;DHT22;11380;50.822;15.790;2022-10-23T18:10:10;11.60;71.00
22426;DHT22;11380;50.822;15.790;2022-10-23T18:15:16;11.10;93.30
22426;DHT22;11380;50.822;15.790;2022-10-23T18:20:21;11.20;99.90
22426;DHT22;11380;50.822;15.790;2022-10-23T18:25:26;11.30;99.80
22426;DHT22;11380;50.822;15.790;2022-10-23T18:30:31;11.30;99.00
22426;DHT22;11380;50.822;15.790;2022-10-23T18:35:38;11.30;83.40
22426;DHT22;11380;50.822;15.790;2022-10-23T18:40:43;11.40;97.60
22426;DHT22;11380;50.822;15.790;2022-10-23T18:45:49;11.40;99.90
22426;DHT22;11380;50.822;15.790;2022-10-23T18:50:58;11.20;94.90
22426;DHT22;11380;50.822;15.790;2022-10-23T18:56:07;11.30;85.30
22426;DHT22;11380;50.822;15.790;2022-10-23T19:01:13;11.00;99.90
22426;DHT22;11380;50.822;15.790;2022-10-23T19:06:20;11.40;1.00
22426;DHT22;11380;50.822;15.790;2022-10-23T19:11:27;11.30;13.30
22426;DHT22;11380;50.822;15.790;2022-10-23T19:16:50;11.30;64.40
22426;DHT22;11380;50.822;15.790;2022-10-23T19:21:54;11.30;82.40
22426;DHT22;11380;50.822;15.790;2022-10-23T19:27:02;11.30;78.80
22426;DHT22;11380;50.822;15.790;2022-10-23T19:32:13;11.40;66.20
22426;DHT22;11380;50.822;15.790;2022-10-23T19:37:19;11.20;98.10
22426;DHT22;11380;50.822;15.790;2022-10-23T19:42:25;11.30;60.00
22426;DHT22;11380;50.822;15.790;2022-10-23T19:47:32;11.50;1.00
22426;DHT22;11380;50.822;15.790;2022-10-23T19:52:41;11.40;23.90
22426;DHT22;11380;50.822;15.790;2022-10-23T19:57:47;11.40;5.00
22426;DHT22;11380;50.822;15.790;2022-10-23T20:02:54;11.10;48.30
22426;DHT22;11380;50.822;15.790;2022-10-23T20:08:01;11.10;35.10
22426;DHT22;11380;50.822;15.790;2022-10-23T20:13:06;11.30;1.00
22426;DHT22;11380;50.822;15.790;2022-10-23T20:18:13;11.10;1.00
22426;DHT22;11380;50.822;15.790;2022-10-23T20:23:18;11.20;1.00
22426;DHT22;11380;50.822;15.790;2022-10-23T20:28:23;11.40;1.00
22426;DHT22;11380;50.822;15.790;2022-10-23T20:33:30;11.10;1.00
22426;DHT22;11380;50.822;15.790;2022-10-23T20:38:35;10.90;1.00
22426;DHT22;11380;50.822;15.790;2022-10-23T20:43:41;10.90;1.00
22426;DHT22;11380;50.822;15.790;2022-10-23T20:48:47;11.10;1.00
22426;DHT22;11380;50.822;15.790;2022-10-23T20:53:53;12.00;1.00
22426;DHT22;11380;50.822;15.790;2022-10-23T20:59:04;12.90;1.00
22426;DHT22;11380;50.822;15.790;2022-10-23T21:04:13;13.20;1.00
22426;DHT22;11380;50.822;15.790;2022-10-23T21:09:19;13.10;1.00
22426;DHT22;11380;50.822;15.790;2022-10-23T21:14:25;13.20;1.00
22426;DHT22;11380;50.822;15.790;2022-10-23T21:19:31;13.20;1.00
22426;DHT22;11380;50.822;15.790;2022-10-23T21:24:37;13.60;1.00
22426;DHT22;11380;50.822;15.790;2022-10-23T21:29:43;13.10;1.00
22426;DHT22;11380;50.822;15.790;2022-10-23T21:34:49;12.80;1.00
22426;DHT22;11380;50.822;15.790;2022-10-23T21:39:55;12.30;1.00
22426;DHT22;11380;50.822;15.790;2022-10-23T21:45:01;13.60;99.90
22426;DHT22;11380;50.822;15.790;2022-10-23T21:50:07;14.00;99.90
22426;DHT22;11380;50.822;15.790;2022-10-23T21:55:14;14.30;99.90
22426;DHT22;11380;50.822;15.790;2022-10-23T22:00:20;14.40;99.90
22426;DHT22;11380;50.822;15.790;2022-10-23T22:05:26;14.20;99.90
22426;DHT22;11380;50.822;15.790;2022-10-23T22:10:33;14.00;99.90
22426;DHT22;11380;50.822;15.790;2022-10-23T22:15:39;14.20;99.90
22426;DHT22;11380;50.822;15.790;2022-10-23T22:20:45;14.00;99.90
22426;DHT22;11380;50.822;15.790;2022-10-23T22:25:50;14.00;1.00
22426;DHT22;11380;50.822;15.790;2022-10-23T22:30:55;14.20;1.00
22426;DHT22;11380;50.822;15.790;2022-10-23T22:36:01;13.80;1.00
22426;DHT22;11380;50.822;15.790;2022-10-23T22:41:07;13.70;1.00
22426;DHT22;11380;50.822;15.790;2022-10-23T22:46:16;13.60;1.00
22426;DHT22;11380;50.822;15.790;2022-10-23T22:51:24;14.20;1.00
22426;DHT22;11380;50.822;15.790;2022-10-23T22:56:30;13.60;1.00
22426;DHT22;11380;50.822;15.790;2022-10-23T23:01:41;13.20;1.00
22426;DHT22;11380;50.822;15.790;2022-10-23T23:06:47;13.00;1.00
22426;DHT22;11380;50.822;15.790;2022-10-23T23:11:52;12.90;1.00
22426;DHT22;11380;50.822;15.790;2022-10-23T23:16:58;12.80;1.00
22426;DHT22;11380;50.822;15.790;2022-10-23T23:22:03;12.80;1.00
22426;DHT22;11380;50.822;15.790;2022-10-23T23:27:10;12.60;1.00
22426;DHT22;11380;50.822;15.790;2022-10-23T23:32:15;12.50;1.00
22426;DHT22;11380;50.822;15.790;2022-10-23T23:37:21;12.60;1.00
22426;DHT22;11380;50.822;15.790;2022-10-23T23:42:29;12.80;1.00
22426;DHT22;11380;50.822;15.790;2022-10-23T23:47:34;12.90;1.00
22426;DHT22;11380;50.822;15.790;2022-10-23T23:52:39;13.20;1.00
22426;DHT22;11380;50.822;15.790;2022-10-23T23:57:45;13.30;1.00
